Time;durP1;ratioP1;P1;durP2;ratioP2;P2;SDS_P1;SDS_P2;PMS_P1;PMS_P2;Temp;Humidity;BMP_temperature;BMP_pressure;BME280_temperature;BME280_humidity;BME280_pressure;Samples;Min_cycle;Max_cycle;Signal;HPM_P1;HPM_P2
2023/12/03 00:01:54;;;;;;;25.43;13.00;;;-1.10;99.90;;;;;;5061866;28;20267;-47
2023/12/03 00:04:22;;;;;;;33.33;13.70;;;-1.00;99.90;;;;;;5048810;28;20614;-51
2023/12/03 00:06:49;;;;;;;69.57;15.03;;;-1.00;99.90;;;;;;5049039;28;20189;-50
2023/12/03 00:09:16;;;;;;;45.97;13.50;;;-1.00;99.90;;;;;;5050436;28;20230;-51
2023/12/03 00:11:43;;;;;;;50.33;15.00;;;-1.00;99.90;;;;;;5057851;28;20776;-49
2023/12/03 00:14:10;;;;;;;33.17;14.03;;;-1.00;99.90;;;;;;5061515;28;20645;-53
2023/12/03 00:16:38;;;;;;;35.37;12.67;;;-1.00;99.90;;;;;;5055951;28;20204;-50
2023/12/03 00:19:05;;;;;;;27.60;12.40;;;-1.00;99.90;;;;;;5048465;28;20440;-47
2023/12/03 00:21:32;;;;;;;53.57;14.80;;;-0.90;99.90;;;;;;5027453;28;20273;-52
2023/12/03 00:23:59;;;;;;;65.67;15.20;;;-1.00;99.90;;;;;;5036204;28;20210;-56
2023/12/03 00:26:26;;;;;;;71.57;15.40;;;-1.00;99.90;;;;;;5058173;28;20261;-48
2023/12/03 00:28:53;;;;;;;59.00;15.10;;;-1.00;99.90;;;;;;5055720;28;20194;-53
2023/12/03 00:31:20;;;;;;;44.70;13.80;;;-1.10;99.90;;;;;;5055676;28;20195;-46
2023/12/03 00:33:48;;;;;;;49.63;15.00;;;-1.10;99.90;;;;;;5056872;28;20205;-53
2023/12/03 00:36:15;;;;;;;50.43;14.10;;;-1.10;99.90;;;;;;5027565;28;20228;-50
2023/12/03 00:38:41;;;;;;;63.67;15.57;;;-1.10;99.90;;;;;;5036012;28;20421;-52
2023/12/03 00:41:08;;;;;;;43.67;15.13;;;-1.10;99.90;;;;;;5057329;28;20648;-52
2023/12/03 00:43:35;;;;;;;35.33;13.33;;;-1.10;99.90;;;;;;5057128;28;20193;-51
2023/12/03 00:46:02;;;;;;;81.07;16.77;;;-1.10;99.90;;;;;;5059998;28;20268;-52
2023/12/03 00:48:29;;;;;;;43.17;14.30;;;-1.10;99.90;;;;;;5053860;28;20197;-48
2023/12/03 00:50:57;;;;;;;42.23;15.10;;;-1.10;99.90;;;;;;5033896;28;20744;-46
2023/12/03 00:53:24;;;;;;;32.10;15.73;;;-1.00;99.90;;;;;;5047276;28;20611;-48
2023/12/03 00:55:52;;;;;;;42.20;15.03;;;-1.00;99.90;;;;;;5041939;28;20330;-55
2023/12/03 00:58:19;;;;;;;50.67;15.73;;;-1.00;99.90;;;;;;5057562;28;20213;-52
2023/12/03 01:00:46;;;;;;;29.73;15.10;;;-1.00;99.90;;;;;;5038460;28;20269;-49
2023/12/03 01:03:13;;;;;;;29.93;16.07;;;-1.00;99.90;;;;;;5048797;28;20197;-53
2023/12/03 01:05:40;;;;;;;29.90;14.70;;;-1.00;99.90;;;;;;5050251;28;20228;-50
2023/12/03 01:08:08;;;;;;;30.83;13.53;;;-0.90;99.90;;;;;;5029388;28;20205;-50
2023/12/03 01:10:35;;;;;;;39.67;14.80;;;-0.90;99.90;;;;;;5049211;28;20830;-52
2023/12/03 01:13:01;;;;;;;31.63;13.83;;;-0.90;99.90;;;;;;5060100;28;20320;-51
2023/12/03 01:15:28;;;;;;;30.07;13.70;;;-0.90;99.90;;;;;;5049806;28;20236;-50
2023/12/03 01:17:55;;;;;;;34.47;13.40;;;-0.90;99.90;;;;;;5056222;28;20285;-47
2023/12/03 01:20:22;;;;;;;32.20;13.60;;;-0.90;99.90;;;;;;5045932;28;20209;-51
2023/12/03 01:22:49;;;;;;;33.53;14.70;;;-0.80;99.90;;;;;;5035682;28;20300;-48
2023/12/03 01:25:17;;;;;;;29.83;13.80;;;-0.80;99.90;;;;;;5038743;28;20227;-56
2023/12/03 01:27:44;;;;;;;27.53;13.10;;;-0.90;99.90;;;;;;5058501;28;20189;-48
2023/12/03 01:30:11;;;;;;;27.73;13.43;;;-0.90;99.90;;;;;;5058345;28;20224;-53
2023/12/03 01:32:38;;;;;;;30.17;13.70;;;-0.90;99.90;;;;;;5045398;28;20288;-46
2023/12/03 01:35:05;;;;;;;27.00;13.33;;;-0.90;99.90;;;;;;5059129;28;20741;-54
2023/12/03 01:37:32;;;;;;;32.40;14.60;;;-0.90;99.90;;;;;;5055753;28;20210;-46
2023/12/03 01:39:59;;;;;;;31.43;14.60;;;-0.90;99.90;;;;;;5029831;28;20263;-54
2023/12/03 01:42:27;;;;;;;28.77;13.93;;;-0.80;99.90;;;;;;5053607;28;20206;-47
2023/12/03 01:44:54;;;;;;;27.33;13.97;;;-0.80;99.90;;;;;;5065225;28;20225;-48
2023/12/03 01:47:21;;;;;;;29.03;13.87;;;-0.80;99.90;;;;;;5052119;28;20274;-48
2023/12/03 01:49:49;;;;;;;30.13;14.83;;;-0.90;99.90;;;;;;5065303;28;20205;-56
2023/12/03 01:52:16;;;;;;;26.73;12.80;;;-0.90;99.90;;;;;;5052639;28;20205;-50
2023/12/03 01:54:44;;;;;;;32.20;12.40;;;-0.90;99.90;;;;;;5035068;28;20314;-49
2023/12/03 01:57:12;;;;;;;26.57;13.40;;;-0.90;99.90;;;;;;5044366;28;20221;-55
2023/12/03 01:59:40;;;;;;;26.40;12.77;;;-0.90;99.90;;;;;;5065045;28;20733;-50
2023/12/03 02:02:07;;;;;;;30.93;12.90;;;-0.90;99.90;;;;;;5058293;28;20287;-52
2023/12/03 02:04:34;;;;;;;30.03;13.67;;;-0.90;99.90;;;;;;5060342;28;20560;-49
2023/12/03 02:07:01;;;;;;;24.67;13.00;;;-1.00;99.90;;;;;;5061646;28;20280;-54
2023/12/03 02:09:28;;;;;;;25.53;12.93;;;-1.00;99.90;;;;;;5030405;28;22418;-49
2023/12/03 02:11:55;;;;;;;28.20;13.97;;;-0.90;99.90;;;;;;5057252;28;20236;-46
2023/12/03 02:14:22;;;;;;;25.63;13.47;;;-0.90;99.90;;;;;;5046309;28;20298;-49
2023/12/03 02:16:50;;;;;;;31.70;13.27;;;-0.90;99.90;;;;;;5064793;28;20608;-47
2023/12/03 02:19:16;;;;;;;24.73;14.17;;;-0.90;99.90;;;;;;5047941;28;20294;-49
2023/12/03 02:21:44;;;;;;;28.60;13.93;;;-1.00;99.90;;;;;;5063374;28;20259;-49
2023/12/03 02:24:12;;;;;;;29.33;13.30;;;-1.00;99.90;;;;;;5027507;28;20225;-51
2023/12/03 02:26:39;;;;;;;29.20;14.87;;;-1.00;99.90;;;;;;5051120;28;20219;-50
2023/12/03 02:29:05;;;;;;;28.30;14.40;;;-0.90;99.90;;;;;;5052469;28;20201;-51
2023/12/03 02:31:32;;;;;;;28.73;14.07;;;-0.90;99.90;;;;;;5061042;28;20266;-49
2023/12/03 02:34:06;;;;;;;29.13;14.27;;;-0.90;99.90;;;;;;5061069;28;20263;-53
2023/12/03 02:36:33;;;;;;;31.03;14.70;;;-0.90;99.90;;;;;;5059312;28;20350;-47
2023/12/03 02:39:00;;;;;;;28.27;14.93;;;-0.90;99.90;;;;;;5062971;28;20261;-52
2023/12/03 02:41:28;;;;;;;27.80;13.17;;;-0.80;99.90;;;;;;5016041;28;20216;-45
2023/12/03 02:43:55;;;;;;;27.57;14.33;;;-0.80;99.90;;;;;;5048197;28;20205;-47
2023/12/03 02:46:22;;;;;;;23.23;12.20;;;-0.80;99.90;;;;;;5059630;28;20405;-49
2023/12/03 02:48:49;;;;;;;20.97;10.63;;;-0.80;99.90;;;;;;5064740;28;20532;-47
2023/12/03 02:51:17;;;;;;;20.43;11.70;;;-0.80;99.90;;;;;;5051692;28;20213;-48
2023/12/03 02:53:45;;;;;;;18.90;10.57;;;-0.80;99.90;;;;;;5064449;28;20198;-46
2023/12/03 02:56:13;;;;;;;21.17;10.27;;;-0.80;99.90;;;;;;5029019;28;20221;-54
2023/12/03 02:58:41;;;;;;;19.07;11.07;;;-0.80;99.90;;;;;;5054021;28;20323;-48
2023/12/03 03:01:08;;;;;;;21.80;10.77;;;-0.80;99.90;;;;;;5062138;28;20224;-53
2023/12/03 03:03:36;;;;;;;23.23;12.07;;;-0.90;99.90;;;;;;5058999;28;20422;-46
2023/12/03 03:06:03;;;;;;;20.53;11.90;;;-1.00;99.90;;;;;;5060055;28;20229;-54
2023/12/03 03:08:30;;;;;;;21.00;11.13;;;-1.00;99.90;;;;;;5056372;28;20213;-49
2023/12/03 03:10:56;;;;;;;20.77;11.60;;;-1.00;99.90;;;;;;5063641;28;20217;-51
2023/12/03 03:13:23;;;;;;;23.27;11.83;;;-0.90;99.90;;;;;;5027537;28;20269;-46
2023/12/03 03:15:53;;;;;;;20.33;11.03;;;-0.80;99.90;;;;;;5048293;28;20237;-46
2023/12/03 03:18:20;;;;;;;23.77;13.17;;;-0.80;99.90;;;;;;5059317;28;20205;-47
2023/12/03 03:20:47;;;;;;;22.53;12.40;;;-0.80;99.90;;;;;;5064087;28;20193;-49
2023/12/03 03:23:14;;;;;;;29.13;14.57;;;-0.80;99.90;;;;;;5051580;28;20233;-54
2023/12/03 03:25:41;;;;;;;23.93;12.60;;;-0.80;99.90;;;;;;5063357;28;20216;-51
2023/12/03 03:28:08;;;;;;;24.63;12.57;;;-0.80;99.90;;;;;;5035700;28;20276;-55
2023/12/03 03:30:34;;;;;;;22.63;12.10;;;-0.90;99.90;;;;;;5049136;28;21047;-46
2023/12/03 03:33:02;;;;;;;20.60;10.83;;;-0.90;99.90;;;;;;5060822;28;20571;-55
2023/12/03 03:35:29;;;;;;;19.80;11.13;;;-0.90;99.90;;;;;;5060899;28;20315;-48
2023/12/03 03:37:56;;;;;;;20.60;11.40;;;-1.00;99.90;;;;;;5063574;28;20201;-47
2023/12/03 03:40:23;;;;;;;27.30;12.23;;;-0.90;99.90;;;;;;5051613;28;20262;-46
2023/12/03 03:42:50;;;;;;;24.30;12.20;;;-0.90;99.90;;;;;;5036999;28;20204;-46
2023/12/03 03:45:16;;;;;;;21.57;11.27;;;-0.90;99.90;;;;;;5059434;28;20224;-50
2023/12/03 03:47:43;;;;;;;18.83;10.43;;;-1.00;99.90;;;;;;5048395;28;20216;-50
2023/12/03 03:50:12;;;;;;;25.97;12.30;;;-1.00;99.90;;;;;;5060618;28;20290;-54
2023/12/03 03:52:38;;;;;;;22.37;11.37;;;-0.90;99.90;;;;;;5061535;28;20197;-47
2023/12/03 03:55:05;;;;;;;24.87;11.90;;;-0.90;99.90;;;;;;5052700;28;20931;-53
2023/12/03 03:57:32;;;;;;;23.70;12.70;;;-1.00;99.90;;;;;;5031367;28;20274;-46
2023/12/03 03:59:59;;;;;;;38.97;12.80;;;-1.00;99.90;;;;;;5060183;28;20217;-55
2023/12/03 04:02:26;;;;;;;35.30;12.97;;;-1.00;99.90;;;;;;5041182;28;20259;-49
2023/12/03 04:04:52;;;;;;;31.83;13.10;;;-1.00;99.90;;;;;;5059154;28;20761;-46
2023/12/03 04:07:21;;;;;;;25.43;12.90;;;-1.10;99.90;;;;;;5057861;28;20190;-49
2023/12/03 04:09:47;;;;;;;25.80;13.03;;;-1.10;99.90;;;;;;5054218;28;20531;-46
2023/12/03 04:12:15;;;;;;;33.73;12.77;;;-1.00;99.90;;;;;;5059618;28;20197;-54
2023/12/03 04:14:42;;;;;;;24.07;13.30;;;-1.00;99.90;;;;;;5035837;28;20253;-46
2023/12/03 04:17:09;;;;;;;21.97;12.03;;;-1.00;99.90;;;;;;5050963;28;20202;-53
2023/12/03 04:19:37;;;;;;;33.87;11.97;;;-1.00;99.90;;;;;;5061460;28;20933;-47
2023/12/03 04:22:04;;;;;;;24.40;11.60;;;-1.10;99.90;;;;;;5060924;28;20652;-51
2023/12/03 04:24:32;;;;;;;26.23;12.47;;;-1.10;99.90;;;;;;5060018;28;20750;-46
2023/12/03 04:26:59;;;;;;;24.90;11.57;;;-1.10;99.90;;;;;;5041217;28;20664;-51
2023/12/03 04:29:26;;;;;;;27.10;11.40;;;-1.10;99.90;;;;;;5035286;28;20233;-51
2023/12/03 04:31:53;;;;;;;29.73;12.07;;;-1.10;99.90;;;;;;5053914;28;20194;-53
2023/12/03 04:34:19;;;;;;;24.20;12.00;;;-1.10;99.90;;;;;;5056396;28;20197;-54
2023/12/03 04:36:46;;;;;;;54.03;13.00;;;-1.20;99.90;;;;;;5054333;28;20197;-55
2023/12/03 04:39:13;;;;;;;22.57;11.47;;;-1.10;99.90;;;;;;5059033;28;20463;-49
2023/12/03 04:41:41;;;;;;;18.10;9.77;;;-1.20;99.90;;;;;;5053297;28;20247;-48
2023/12/03 04:44:08;;;;;;;26.43;12.33;;;-1.20;99.90;;;;;;5058829;28;20278;-47
2023/12/03 04:46:35;;;;;;;36.33;11.70;;;-1.20;99.90;;;;;;5036105;28;20240;-48
2023/12/03 04:49:01;;;;;;;22.60;10.87;;;-1.20;99.90;;;;;;5041350;28;20342;-49
2023/12/03 04:51:28;;;;;;;41.73;12.50;;;-1.30;99.90;;;;;;5060811;28;20192;-47
2023/12/03 04:53:55;;;;;;;25.70;10.77;;;-1.30;99.90;;;;;;5059268;28;20703;-54
2023/12/03 04:56:22;;;;;;;26.20;13.07;;;-1.40;99.90;;;;;;5051741;28;20767;-49
2023/12/03 04:58:50;;;;;;;37.63;12.57;;;-1.30;99.90;;;;;;5060736;28;20204;-54
2023/12/03 05:01:17;;;;;;;23.37;11.53;;;-1.30;99.90;;;;;;5032104;28;20400;-50
2023/12/03 05:03:44;;;;;;;32.70;12.40;;;-1.30;99.90;;;;;;5051029;28;20228;-53
2023/12/03 05:06:11;;;;;;;24.37;11.23;;;-1.30;99.90;;;;;;5058428;28;20487;-47
2023/12/03 05:08:38;;;;;;;21.00;11.93;;;-1.30;99.90;;;;;;5053470;28;20213;-50
2023/12/03 05:11:06;;;;;;;32.53;11.70;;;-1.30;99.90;;;;;;5055329;28;20259;-48
2023/12/03 05:13:33;;;;;;;24.13;11.17;;;-1.30;99.90;;;;;;5053348;28;20205;-46
2023/12/03 05:16:04;;;;;;;25.37;12.33;;;-1.30;99.90;;;;;;5033233;28;20560;-53
2023/12/03 05:18:31;;;;;;;23.77;11.30;;;-1.30;99.90;;;;;;5045783;28;20204;-48
2023/12/03 05:20:58;;;;;;;28.83;13.30;;;-1.30;99.90;;;;;;5059475;28;20195;-51
2023/12/03 05:23:24;;;;;;;28.03;13.13;;;-1.20;99.90;;;;;;5049020;28;20279;-48
2023/12/03 05:25:51;;;;;;;30.27;12.60;;;-1.20;99.90;;;;;;5055522;28;20273;-53
2023/12/03 05:28:18;;;;;;;22.87;12.43;;;-1.10;99.90;;;;;;5051369;28;20210;-47
2023/12/03 05:30:45;;;;;;;26.70;12.83;;;-1.10;99.90;;;;;;5053976;28;20291;-54
2023/12/03 05:33:14;;;;;;;23.83;12.40;;;-1.10;99.90;;;;;;5041374;28;20918;-48
2023/12/03 05:35:41;;;;;;;27.57;12.07;;;-1.10;99.90;;;;;;5051890;28;20742;-46
2023/12/03 05:38:08;;;;;;;25.77;11.63;;;-1.20;99.90;;;;;;5057469;28;20205;-46
2023/12/03 05:40:34;;;;;;;32.70;11.50;;;-1.20;99.90;;;;;;5054690;28;20278;-49
2023/12/03 05:43:01;;;;;;;22.70;11.07;;;-1.20;99.90;;;;;;5049335;28;20543;-54
2023/12/03 05:45:28;;;;;;;23.53;11.47;;;-1.30;99.90;;;;;;5061138;28;20383;-48
2023/12/03 05:47:55;;;;;;;60.87;13.20;;;-1.30;99.90;;;;;;5032605;28;20217;-53
2023/12/03 05:50:24;;;;;;;88.13;15.40;;;-1.30;99.90;;;;;;5050761;28;20668;-47
2023/12/03 05:52:51;;;;;;;30.50;12.03;;;-1.30;99.90;;;;;;5059307;28;20197;-53
2023/12/03 05:55:18;;;;;;;29.07;13.13;;;-1.30;99.90;;;;;;5051381;28;20251;-46
2023/12/03 05:57:45;;;;;;;38.33;11.87;;;-1.30;99.90;;;;;;5059545;28;20223;-55
2023/12/03 06:00:12;;;;;;;38.37;13.27;;;-1.30;99.90;;;;;;5051726;28;20223;-46
2023/12/03 06:02:39;;;;;;;27.67;12.60;;;-1.30;99.90;;;;;;5030265;28;20242;-48
2023/12/03 06:05:07;;;;;;;37.97;12.50;;;-1.30;99.90;;;;;;5043172;28;21329;-46
2023/12/03 06:07:35;;;;;;;27.10;12.20;;;-1.30;99.90;;;;;;5054661;28;20229;-46
2023/12/03 06:10:02;;;;;;;26.53;11.93;;;-1.30;99.90;;;;;;5057438;28;20207;-51
2023/12/03 06:12:28;;;;;;;29.27;10.60;;;-1.30;99.90;;;;;;5053230;28;20236;-50
2023/12/03 06:14:56;;;;;;;42.40;12.33;;;-1.30;99.90;;;;;;5049839;28;20278;-54
2023/12/03 06:17:23;;;;;;;34.10;11.57;;;-1.40;99.90;;;;;;5060624;28;20580;-47
2023/12/03 06:19:49;;;;;;;38.40;12.67;;;-1.40;99.90;;;;;;5031312;28;20282;-51
2023/12/03 06:22:16;;;;;;;26.87;11.47;;;-1.40;99.90;;;;;;5055752;28;20194;-46
2023/12/03 06:24:44;;;;;;;75.17;13.73;;;-1.40;99.90;;;;;;5063928;28;20224;-52
2023/12/03 06:27:11;;;;;;;56.00;12.23;;;-1.40;99.90;;;;;;5052821;28;20365;-48
2023/12/03 06:29:38;;;;;;;117.93;15.83;;;-1.40;99.90;;;;;;5055938;28;20275;-46
2023/12/03 06:32:05;;;;;;;38.13;11.93;;;-1.40;99.90;;;;;;5060164;28;20204;-47
2023/12/03 06:34:32;;;;;;;71.43;12.80;;;-1.50;99.90;;;;;;5037818;28;20229;-50
2023/12/03 06:36:59;;;;;;;36.53;13.33;;;-1.40;99.90;;;;;;5051038;28;20205;-50
2023/12/03 06:39:26;;;;;;;40.67;12.50;;;-1.40;99.90;;;;;;5063233;28;20212;-49
2023/12/03 06:41:54;;;;;;;67.83;13.87;;;-1.40;99.90;;;;;;5058091;28;20224;-52
2023/12/03 06:44:21;;;;;;;66.77;15.73;;;-1.40;99.90;;;;;;5052233;28;20278;-48
2023/12/03 06:46:48;;;;;;;43.30;12.20;;;-1.40;99.90;;;;;;5063609;28;20199;-54
2023/12/03 06:49:15;;;;;;;49.67;13.27;;;-1.40;99.90;;;;;;5060442;28;20232;-49
2023/12/03 06:51:41;;;;;;;47.83;12.60;;;-1.40;99.90;;;;;;5028910;28;20214;-48
2023/12/03 06:54:08;;;;;;;71.10;13.53;;;-1.40;99.90;;;;;;5059473;28;20520;-48
2023/12/03 06:56:35;;;;;;;34.73;12.43;;;-1.40;99.90;;;;;;5063711;28;20218;-46
2023/12/03 06:59:03;;;;;;;37.33;11.30;;;-1.40;99.90;;;;;;5043728;28;20200;-52
2023/12/03 07:01:30;;;;;;;47.83;13.40;;;-1.40;99.90;;;;;;5064218;28;20188;-47
2023/12/03 07:03:57;;;;;;;52.63;13.00;;;-1.40;99.90;;;;;;5058230;28;20682;-55
2023/12/03 07:06:24;;;;;;;41.50;12.90;;;-1.50;99.90;;;;;;5035934;28;20311;-49
2023/12/03 07:08:51;;;;;;;65.17;15.17;;;-1.40;99.90;;;;;;5053498;28;20208;-53
2023/12/03 07:11:18;;;;;;;53.27;13.17;;;-1.40;99.90;;;;;;5061761;28;21115;-47
2023/12/03 07:13:46;;;;;;;62.93;15.07;;;-1.40;99.90;;;;;;5053111;28;20304;-55
2023/12/03 07:16:16;;;;;;;122.60;16.07;;;-1.40;99.90;;;;;;5052682;28;20277;-46
2023/12/03 07:18:43;;;;;;;85.00;15.53;;;-1.40;99.90;;;;;;5063342;28;20221;-52
2023/12/03 07:21:11;;;;;;;51.17;14.43;;;-1.50;99.90;;;;;;5060061;28;20310;-46
2023/12/03 07:23:38;;;;;;;33.60;12.40;;;-1.60;99.90;;;;;;5038507;28;20238;-46
2023/12/03 07:26:09;;;;;;;42.73;12.87;;;-1.50;99.90;;;;;;5059639;28;20910;-51
2023/12/03 07:28:36;;;;;;;102.10;15.73;;;-1.60;99.90;;;;;;5063252;28;20673;-46
2023/12/03 07:31:03;;;;;;;91.77;15.13;;;-1.60;99.90;;;;;;5043032;28;20234;-50
2023/12/03 07:33:32;;;;;;;69.13;14.30;;;-1.60;99.90;;;;;;5062909;28;20272;-49
2023/12/03 07:35:58;;;;;;;149.53;16.50;;;-1.60;99.90;;;;;;5060132;28;20710;-53
2023/12/03 07:38:25;;;;;;;85.30;16.40;;;-1.60;99.90;;;;;;5036277;28;20260;-50
2023/12/03 07:40:52;;;;;;;48.37;13.53;;;-1.70;99.90;;;;;;5061787;28;20213;-50
2023/12/03 07:43:19;;;;;;;149.33;16.67;;;-1.70;99.90;;;;;;5055755;28;20196;-48
2023/12/03 07:45:45;;;;;;;109.37;17.27;;;-1.60;99.90;;;;;;5050328;28;20261;-52
2023/12/03 07:48:12;;;;;;;72.90;15.10;;;-1.70;99.90;;;;;;5044673;28;20994;-47
2023/12/03 07:50:41;;;;;;;126.80;17.17;;;-1.70;99.90;;;;;;5059177;28;20372;-46
2023/12/03 07:53:07;;;;;;;67.07;14.30;;;-1.70;99.90;;;;;;5057558;28;20193;-54
2023/12/03 07:55:35;;;;;;;54.90;13.60;;;-1.70;99.90;;;;;;5035382;28;20577;-46
2023/12/03 07:58:01;;;;;;;36.07;13.23;;;-1.60;99.90;;;;;;5059003;28;20204;-51
2023/12/03 08:00:28;;;;;;;62.17;13.83;;;-1.60;99.90;;;;;;5053215;28;20312;-49
2023/12/03 08:02:55;;;;;;;59.77;13.90;;;-1.60;99.90;;;;;;5050390;28;20216;-53
2023/12/03 08:05:22;;;;;;;102.17;14.60;;;-1.60;99.90;;;;;;5053930;28;20216;-47
2023/12/03 08:07:50;;;;;;;123.53;16.37;;;-1.70;99.90;;;;;;5059508;28;20227;-52
2023/12/03 08:10:16;;;;;;;144.73;17.60;;;-1.80;99.90;;;;;;5024039;28;20241;-53
2023/12/03 08:12:44;;;;;;;95.77;17.37;;;-1.80;99.90;;;;;;5043472;28;20242;-48
2023/12/03 08:15:11;;;;;;;35.27;13.70;;;-1.80;99.90;;;;;;5050480;28;20276;-51
2023/12/03 08:17:38;;;;;;;111.03;18.57;;;-1.80;99.90;;;;;;5038636;28;20194;-46
2023/12/03 08:20:05;;;;;;;64.20;14.20;;;-1.70;99.90;;;;;;5048057;28;20212;-46
2023/12/03 08:22:32;;;;;;;34.63;13.30;;;-1.70;99.90;;;;;;5058011;28;20218;-50
2023/12/03 08:25:00;;;;;;;45.80;13.17;;;-1.60;99.90;;;;;;5050628;28;20216;-51
2023/12/03 08:27:27;;;;;;;34.97;12.90;;;-1.70;99.90;;;;;;5017936;28;20235;-50
2023/12/03 08:29:54;;;;;;;34.57;12.17;;;-1.80;99.90;;;;;;5049130;28;20197;-47
2023/12/03 08:32:21;;;;;;;47.67;12.60;;;-1.70;99.90;;;;;;5038389;28;20228;-53
2023/12/03 08:34:48;;;;;;;48.87;15.60;;;-1.70;99.90;;;;;;5044826;28;20438;-45
2023/12/03 08:37:14;;;;;;;38.80;13.73;;;-1.70;99.90;;;;;;5059773;28;20255;-54
2023/12/03 08:39:41;;;;;;;35.60;13.23;;;-1.70;99.90;;;;;;5056428;28;21103;-48
2023/12/03 08:42:09;;;;;;;43.97;14.30;;;-1.60;99.90;;;;;;5026996;28;20249;-49
2023/12/03 08:44:36;;;;;;;64.23;14.03;;;-1.60;99.90;;;;;;5032590;28;20288;-48
2023/12/03 08:47:03;;;;;;;41.13;13.53;;;-1.50;99.90;;;;;;5055068;28;20231;-51
2023/12/03 08:49:30;;;;;;;51.77;14.30;;;-1.60;99.90;;;;;;5047761;28;20211;-46
2023/12/03 08:51:57;;;;;;;52.10;14.67;;;-1.60;99.90;;;;;;5044761;28;20664;-49
2023/12/03 08:54:24;;;;;;;40.13;11.70;;;-1.60;99.90;;;;;;5040968;28;20199;-48
2023/12/03 08:56:51;;;;;;;36.63;13.50;;;-1.50;99.90;;;;;;5029119;28;20191;-51
2023/12/03 08:59:23;;;;;;;29.13;12.90;;;-1.50;99.90;;;;;;5036449;28;20207;-48
2023/12/03 09:01:49;;;;;;;38.03;12.00;;;-1.60;99.90;;;;;;5050801;28;20223;-51
2023/12/03 09:04:16;;;;;;;20.27;10.57;;;-1.60;99.90;;;;;;5047155;28;20206;-48
2023/12/03 09:06:44;;;;;;;31.63;12.63;;;-1.60;99.90;;;;;;5050343;28;20196;-48
2023/12/03 09:09:11;;;;;;;28.37;11.83;;;-1.60;99.90;;;;;;5054854;28;20242;-52
2023/12/03 09:11:42;;;;;;;25.33;11.27;;;-1.60;99.90;;;;;;5048723;28;20249;-53
2023/12/03 09:14:09;;;;;;;23.93;11.07;;;-1.60;99.90;;;;;;5032310;28;20611;-47
2023/12/03 09:16:37;;;;;;;21.00;10.30;;;-1.50;99.90;;;;;;5055557;28;20566;-52
2023/12/03 09:19:04;;;;;;;28.07;10.53;;;-1.50;99.90;;;;;;5043593;28;20254;-48
2023/12/03 09:21:31;;;;;;;21.73;10.60;;;-1.50;99.90;;;;;;5051847;28;20289;-48
2023/12/03 09:23:58;;;;;;;23.33;9.93;;;-1.60;99.90;;;;;;5051994;28;20261;-46
2023/12/03 09:26:24;;;;;;;23.60;10.83;;;-1.60;99.90;;;;;;5052178;28;20242;-50
2023/12/03 09:28:51;;;;;;;20.20;10.23;;;-1.60;99.90;;;;;;5016539;28;20414;-50
2023/12/03 09:31:18;;;;;;;18.13;9.70;;;-1.60;99.90;;;;;;5042192;28;20221;-47
2023/12/03 09:33:46;;;;;;;20.03;10.23;;;-1.50;99.90;;;;;;5041108;28;20204;-49
2023/12/03 09:36:13;;;;;;;19.70;10.63;;;-1.60;99.90;;;;;;5052551;28;20213;-47
2023/12/03 09:38:40;;;;;;;17.90;9.40;;;-1.70;99.90;;;;;;5049242;28;20233;-53
2023/12/03 09:41:12;;;;;;;25.87;10.00;;;-1.70;99.90;;;;;;5054061;28;20226;-51
2023/12/03 09:43:43;;;;;;;16.10;9.87;;;-1.70;99.90;;;;;;5035289;28;20207;-52
2023/12/03 09:46:13;;;;;;;26.17;9.80;;;-1.80;99.90;;;;;;5036757;28;20315;-48
2023/12/03 09:48:42;;;;;;;17.10;9.00;;;-1.80;99.90;;;;;;5044295;28;20557;-52
2023/12/03 09:51:11;;;;;;;21.07;8.80;;;-2.00;99.90;;;;;;5046136;28;20219;-47
2023/12/03 09:53:41;;;;;;;23.50;10.20;;;-2.00;99.90;;;;;;5050552;28;20199;-54
2023/12/03 09:56:10;;;;;;;18.37;9.13;;;-2.10;99.90;;;;;;5055729;28;20277;-47
2023/12/03 09:58:37;;;;;;;16.53;9.43;;;-2.20;99.90;;;;;;5049655;28;20329;-49
2023/12/03 10:01:05;;;;;;;21.57;10.10;;;-2.20;99.90;;;;;;5029169;28;20331;-45
2023/12/03 10:03:32;;;;;;;19.03;9.57;;;-2.10;99.90;;;;;;5056078;28;20254;-52
2023/12/03 10:05:59;;;;;;;20.83;10.17;;;-2.10;99.90;;;;;;5044924;28;20443;-49
2023/12/03 10:08:29;;;;;;;28.67;10.40;;;-2.00;99.90;;;;;;5057813;28;20222;-47
2023/12/03 10:10:59;;;;;;;32.17;11.03;;;-2.00;99.90;;;;;;5060707;28;20914;-49
2023/12/03 10:13:28;;;;;;;21.33;10.67;;;-2.00;99.90;;;;;;5058504;28;20203;-50
2023/12/03 10:15:55;;;;;;;24.43;11.07;;;-2.00;99.90;;;;;;5019109;28;20474;-47
2023/12/03 10:18:22;;;;;;;25.87;11.87;;;-1.90;99.90;;;;;;5061155;28;20265;-47
2023/12/03 10:20:50;;;;;;;23.90;11.97;;;-1.80;99.90;;;;;;5052281;28;20224;-53
2023/12/03 10:23:18;;;;;;;23.20;11.33;;;-1.70;99.90;;;;;;5047093;28;20286;-48
2023/12/03 10:25:46;;;;;;;24.60;11.87;;;-1.80;99.90;;;;;;5056759;28;20216;-53
2023/12/03 10:28:13;;;;;;;20.00;11.10;;;-1.70;99.90;;;;;;5059581;28;20723;-48
2023/12/03 10:30:41;;;;;;;23.60;11.90;;;-1.70;99.90;;;;;;5025891;28;20806;-53
2023/12/03 10:33:11;;;;;;;22.57;10.07;;;-1.60;99.90;;;;;;5052851;28;20215;-47
2023/12/03 10:35:38;;;;;;;27.13;11.50;;;-1.50;99.90;;;;;;5052487;28;20226;-51
2023/12/03 10:38:07;;;;;;;25.97;10.90;;;-1.50;99.90;;;;;;5041016;28;20366;-49
2023/12/03 10:40:34;;;;;;;28.67;12.03;;;-1.40;99.90;;;;;;5060988;28;20346;-51
2023/12/03 10:43:03;;;;;;;22.47;11.43;;;-1.40;99.90;;;;;;5060039;28;20197;-50
2023/12/03 10:45:30;;;;;;;22.17;9.93;;;-1.50;99.90;;;;;;5029347;28;20288;-47
2023/12/03 10:48:00;;;;;;;23.03;10.87;;;-1.50;99.90;;;;;;5044371;28;20196;-45
2023/12/03 10:50:29;;;;;;;20.60;10.40;;;-1.40;99.90;;;;;;5051049;28;20203;-49
2023/12/03 10:53:00;;;;;;;27.90;12.77;;;-1.30;99.90;;;;;;5054934;28;20200;-51
2023/12/03 10:55:26;;;;;;;23.87;11.97;;;-1.30;99.90;;;;;;5051287;28;20216;-50
2023/12/03 10:57:59;;;;;;;24.77;12.00;;;-1.20;99.90;;;;;;5058206;28;20197;-50
2023/12/03 11:00:35;;;;;;;25.10;12.07;;;-1.10;99.90;;;;;;5028236;28;20444;-46
2023/12/03 11:03:09;;;;;;;27.73;12.47;;;-1.20;99.90;;;;;;5048217;28;20253;-52
2023/12/03 11:05:43;;;;;;;19.77;11.40;;;-1.20;99.90;;;;;;5056800;28;20217;-45
2023/12/03 11:08:12;;;;;;;25.00;12.17;;;-1.10;99.90;;;;;;5047336;28;20659;-51
2023/12/03 11:10:39;;;;;;;20.90;11.30;;;-1.20;99.90;;;;;;5053139;28;20596;-47
2023/12/03 11:13:08;;;;;;;23.67;11.70;;;-1.20;99.90;;;;;;5057102;28;20201;-53
2023/12/03 11:15:38;;;;;;;24.13;10.40;;;-1.20;99.90;;;;;;5036409;28;20621;-48
2023/12/03 11:18:06;;;;;;;24.37;11.37;;;-1.20;99.90;;;;;;5045943;28;20684;-51
2023/12/03 11:20:36;;;;;;;27.37;12.77;;;-1.20;99.90;;;;;;5054713;28;20278;-51
2023/12/03 11:23:20;;;;;;;23.60;10.80;;;-1.20;99.90;;;;;;5055372;28;20606;-50
2023/12/03 11:25:55;;;;;;;26.13;13.07;;;-1.10;99.90;;;;;;5041475;28;20979;-45
2023/12/03 11:28:22;;;;;;;30.10;13.70;;;-1.10;99.90;;;;;;5061467;28;20595;-50
2023/12/03 11:30:51;;;;;;;25.77;13.13;;;-1.00;99.90;;;;;;5044310;28;20204;-43
2023/12/03 11:33:21;;;;;;;35.77;18.17;;;-1.00;99.90;;;;;;5020586;28;20522;-49
2023/12/03 11:35:48;;;;;;;30.70;14.07;;;-0.80;99.90;;;;;;5060052;28;20283;-46
2023/12/03 11:38:25;;;;;;;28.60;13.57;;;-0.90;99.90;;;;;;5045892;28;20201;-45
2023/12/03 11:40:52;;;;;;;25.53;12.77;;;-0.90;99.90;;;;;;5047415;28;20229;-51
2023/12/03 11:43:26;;;;;;;26.60;13.60;;;-0.90;99.90;;;;;;5045277;28;20204;-46
2023/12/03 11:45:55;;;;;;;23.33;11.90;;;-0.90;99.90;;;;;;5052498;28;20266;-55
2023/12/03 11:48:25;;;;;;;29.60;13.30;;;-0.90;99.90;;;;;;5028779;28;20202;-50
2023/12/03 11:50:52;;;;;;;25.67;12.33;;;-0.90;99.90;;;;;;5045519;28;20221;-51
2023/12/03 11:53:27;;;;;;;27.93;12.93;;;-0.90;99.90;;;;;;5046830;28;20200;-45
2023/12/03 11:55:55;;;;;;;24.80;12.80;;;-0.90;99.90;;;;;;5046651;28;20225;-52
2023/12/03 11:58:22;;;;;;;27.40;12.63;;;-0.80;99.90;;;;;;5056841;28;20375;-51
2023/12/03 12:00:49;;;;;;;30.07;13.57;;;-0.80;99.90;;;;;;5059163;28;20292;-50
2023/12/03 12:03:17;;;;;;;25.67;13.47;;;-0.80;99.90;;;;;;5024309;28;20228;-45
2023/12/03 12:05:46;;;;;;;28.20;12.87;;;-0.80;99.90;;;;;;5041456;28;20623;-46
2023/12/03 12:08:18;;;;;;;27.70;12.97;;;-0.70;99.90;;;;;;5045386;28;20374;-49
2023/12/03 12:10:45;;;;;;;25.37;13.27;;;-0.60;99.90;;;;;;5053667;28;20546;-46
2023/12/03 12:13:12;;;;;;;26.17;13.47;;;-0.50;99.90;;;;;;5047085;28;20208;-48
2023/12/03 12:15:39;;;;;;;25.30;12.43;;;-0.40;99.90;;;;;;5057456;28;20221;-46
2023/12/03 12:18:06;;;;;;;26.70;12.33;;;-0.30;99.90;;;;;;5046941;28;20265;-46
2023/12/03 12:20:34;;;;;;;26.57;13.10;;;-0.40;99.90;;;;;;5015354;28;20209;-46
2023/12/03 12:23:01;;;;;;;25.73;12.40;;;-0.30;99.90;;;;;;5043999;28;20220;-49
2023/12/03 12:25:29;;;;;;;23.03;12.50;;;-0.20;99.90;;;;;;5060369;28;20250;-49
2023/12/03 12:27:56;;;;;;;24.00;12.93;;;-0.20;99.90;;;;;;5045053;28;20287;-52
2023/12/03 12:30:25;;;;;;;25.33;12.23;;;-0.10;99.90;;;;;;5051648;28;20237;-46